Strona główna
METAR-TAF:

METAR-TAF

Lotnisko :

Derby, Australia

Szerokość geograficzna: 17-22-12S, Długość geograficzna: 123-39-38E, wysokość: 7 m

Aktualna obserwacja pogody

Raport powstał 52 minut temu, godzina 19:00 UTC
Wiatr 8 kt od południowo-południowy wschód
Temperatura 16°C
Wilgotność 59%
Ciśnienie 1015 hPa
Widzialność 10 km lub więcej

METAR: YDBY 051900Z AUTO 16008KT 9999 // NCD 16/08 Q1015

czas: 03:52 (19:52 UTC)


TAF: brakujący

Obserwacja i prognoza pogody dla ponad 4000 lotnisk (raport METAR i TAF).

Dostępne stacje oznaczono żółtymi i czerwonymi punktami na mapie.

Najedź kursorem aby zobaczyć nazwę stacji.

Kliknij aby zobaczyć obserwacje i prognozy pogody.

Aby zmienić mapę: kliknij na zielony przycisk z czarnym krzyżykiem, aby powiększyć; na zielony przycisk z myślnikiem, aby pomniejszyć; na zielone strzałki, aby przejść do map sąsiednich.


METAR-TAF: